Time;durP1;ratioP1;P1;durP2;ratioP2;P2;SDS_P1;SDS_P2;PMS_P1;PMS_P2;Temp;Humidity;BMP_temperature;BMP_pressure;BME280_temperature;BME280_humidity;BME280_pressure;Samples;Min_cycle;Max_cycle;Signal;HPM_P1;HPM_P2
2021/10/26 00:01:39;;;;;;;6.70;4.23;;;;;;;;;;5079673;28;20441;-67
2021/10/26 00:04:07;;;;;;;8.30;4.83;;;;;;;;;;5090214;28;20447;-66
2021/10/26 00:06:35;;;;;;;5.30;4.80;;;;;;;;;;5073842;28;20528;-67
2021/10/26 00:09:02;;;;;;;5.00;4.50;;;;;;;;;;5079713;28;20932;-67
2021/10/26 00:11:29;;;;;;;7.73;5.03;;;;;;;;;;5089789;28;20568;-67
2021/10/26 00:13:56;;;;;;;9.50;5.27;;;;;;;;;;5090277;28;20951;-67
2021/10/26 00:16:25;;;;;;;6.57;4.40;;;;;;;;;;5085022;28;20455;-67
2021/10/26 00:18:52;;;;;;;5.67;4.07;;;;;;;;;;5084600;28;20451;-67
2021/10/26 00:21:19;;;;;;;7.47;5.00;;;;;;;;;;5076302;28;20449;-67
2021/10/26 00:23:46;;;;;;;5.60;4.10;;;;;;;;;;5080297;28;20527;-67
2021/10/26 00:26:13;;;;;;;5.70;4.40;;;;;;;;;;5073403;28;20831;-67
2021/10/26 00:28:40;;;;;;;5.43;4.30;;;8.20;99.90;;;;;;5070448;28;20450;-67
2021/10/26 00:31:07;;;;;;;7.30;4.50;;;8.90;99.90;;;;;;5080136;28;20988;-67
2021/10/26 00:33:36;;;;;;;6.20;4.23;;;9.00;99.90;;;;;;5090474;28;20959;-67
2021/10/26 00:36:03;;;;;;;6.80;4.13;;;9.20;99.90;;;;;;5073843;28;20539;-67
2021/10/26 00:38:30;;;;;;;9.13;5.07;;;9.20;99.90;;;;;;5070530;28;20484;-67
2021/10/26 00:40:59;;;;;;;6.90;4.73;;;9.20;99.90;;;;;;5077173;28;20448;-67
2021/10/26 00:43:26;;;;;;;5.60;4.50;;;9.20;99.90;;;;;;5081786;28;20502;-67
2021/10/26 00:45:53;;;;;;;5.50;4.33;;;9.30;99.90;;;;;;5078427;28;20441;-67
2021/10/26 00:48:21;;;;;;;5.27;4.33;;;9.40;99.90;;;;;;5076821;28;21005;-67
2021/10/26 00:50:49;;;;;;;6.20;4.47;;;9.30;99.90;;;;;;5079747;28;20503;-67
2021/10/26 00:53:18;;;;;;;6.93;4.50;;;9.40;99.90;;;;;;5075082;28;20442;-67
2021/10/26 00:55:45;;;;;;;7.10;4.93;;;9.40;99.90;;;;;;5093364;28;20565;-67
2021/10/26 00:58:12;;;;;;;5.63;4.47;;;9.40;99.90;;;;;;5081169;28;20475;-67
2021/10/26 01:00:39;;;;;;;8.60;4.17;;;9.40;99.90;;;;;;5078092;28;20455;-67
2021/10/26 01:03:06;;;;;;;8.60;5.07;;;9.30;99.90;;;;;;5091085;28;20519;-67
2021/10/26 01:05:33;;;;;;;7.70;5.80;;;9.40;99.90;;;;;;5085828;28;20501;-67
2021/10/26 01:08:02;;;;;;;8.73;5.53;;;9.50;99.90;;;;;;5088142;28;21010;-67
2021/10/26 01:10:29;;;;;;;9.93;4.70;;;9.40;99.90;;;;;;5085833;28;20884;-67
2021/10/26 01:12:56;;;;;;;6.50;5.03;;;9.40;99.90;;;;;;5084399;28;20452;-67
2021/10/26 01:15:23;;;;;;;5.53;4.77;;;9.30;99.90;;;;;;5086600;28;20528;-67
2021/10/26 01:17:50;;;;;;;7.90;5.13;;;9.40;99.90;;;;;;5089733;28;20532;-67
2021/10/26 01:20:18;;;;;;;5.40;4.73;;;9.40;99.90;;;;;;5094248;28;20448;-67
2021/10/26 01:22:45;;;;;;;5.63;4.53;;;9.40;99.90;;;;;;5077075;28;20460;-67
2021/10/26 01:25:14;;;;;;;6.30;4.80;;;9.40;99.90;;;;;;5073526;28;20972;-66
2021/10/26 01:27:46;;;;;;;5.33;4.43;;;9.40;99.90;;;;;;5079799;28;20821;-67
2021/10/26 01:30:16;;;;;;;6.50;5.23;;;9.50;99.90;;;;;;5090298;28;20475;-67
2021/10/26 01:32:44;;;;;;;7.30;5.00;;;9.70;99.90;;;;;;5092824;28;20452;-66
2021/10/26 01:35:11;;;;;;;7.77;4.67;;;9.80;99.90;;;;;;5081877;28;20838;-67
2021/10/26 01:37:39;;;;;;;8.30;5.00;;;9.70;99.90;;;;;;5082330;28;20941;-66
2021/10/26 01:40:07;;;;;;;9.53;5.53;;;9.80;99.90;;;;;;5093434;28;20803;-67
2021/10/26 01:42:34;;;;;;;9.07;5.07;;;9.80;99.90;;;;;;5091940;28;20448;-66
2021/10/26 01:45:01;;;;;;;5.40;4.63;;;9.70;99.90;;;;;;5076215;28;20453;-66
2021/10/26 01:47:27;;;;;;;8.03;5.73;;;9.60;99.90;;;;;;5087678;28;20445;-66
2021/10/26 01:49:54;;;;;;;8.53;5.20;;;9.60;99.90;;;;;;5076403;28;20576;-67
2021/10/26 01:52:22;;;;;;;6.23;5.03;;;9.60;99.90;;;;;;5084374;28;20481;-67
2021/10/26 01:54:51;;;;;;;12.07;5.00;;;9.50;99.90;;;;;;5084324;28;20448;-67
2021/10/26 01:57:19;;;;;;;5.93;5.00;;;9.40;99.90;;;;;;5086386;28;20549;-66
2021/10/26 01:59:47;;;;;;;6.10;5.30;;;9.40;99.90;;;;;;5092616;28;20452;-66
2021/10/26 02:02:14;;;;;;;6.80;4.70;;;9.40;99.90;;;;;;5082138;28;20541;-67
2021/10/26 02:04:41;;;;;;;7.13;5.13;;;9.30;99.90;;;;;;5079130;28;20532;-67
2021/10/26 02:07:08;;;;;;;5.83;5.03;;;9.30;99.90;;;;;;5086147;28;20528;-67
2021/10/26 02:09:35;;;;;;;7.77;5.90;;;9.30;99.90;;;;;;5083378;28;20934;-66
2021/10/26 02:12:04;;;;;;;7.33;5.50;;;9.30;99.90;;;;;;5091946;28;20445;-67
2021/10/26 02:14:31;;;;;;;7.90;5.30;;;9.30;99.90;;;;;;5081939;28;20445;-66
2021/10/26 02:16:59;;;;;;;8.30;6.27;;;9.20;99.90;;;;;;5087166;28;20533;-67
2021/10/26 02:19:26;;;;;;;7.73;6.20;;;9.20;99.90;;;;;;5076175;28;20446;-67
2021/10/26 02:21:53;;;;;;;8.00;6.47;;;9.20;99.90;;;;;;5077740;28;20899;-67
2021/10/26 02:24:20;;;;;;;6.13;4.93;;;;;;;;;;5078863;28;20454;-67
2021/10/26 02:26:47;;;;;;;7.97;6.30;;;;;;;;;;5081538;28;20440;-67
2021/10/26 02:29:16;;;;;;;13.47;7.50;;;;;;;;;;5089996;28;20531;-68
2021/10/26 02:31:43;;;;;;;9.60;6.47;;;;;;;;;;5085247;28;20992;-67
2021/10/26 02:34:10;;;;;;;9.07;5.63;;;;;;;;;;5081988;28;20450;-67
2021/10/26 02:36:37;;;;;;;9.07;5.80;;;;;;;;;;5073288;28;20454;-67
2021/10/26 02:39:05;;;;;;;8.97;5.80;;;;;;;;;;5090447;28;20964;-67
2021/10/26 02:41:32;;;;;;;9.30;6.23;;;;;;;;;;5072618;28;20866;-67
2021/10/26 02:44:00;;;;;;;10.30;5.90;;;;;;;;;;5081075;28;20441;-67
2021/10/26 02:46:28;;;;;;;8.60;5.80;;;;;;;;;;5082164;28;20987;-66
2021/10/26 02:48:55;;;;;;;9.40;6.30;;;;;;;;;;5079149;28;20821;-67
2021/10/26 02:51:23;;;;;;;6.30;5.30;;;;;;;;;;5078128;28;20471;-67
2021/10/26 02:53:50;;;;;;;7.97;5.40;;;;;;;;;;5071397;28;20999;-67
2021/10/26 02:56:17;;;;;;;7.77;6.60;;;;;;;;;;5072360;28;20532;-67
2021/10/26 02:58:44;;;;;;;9.33;5.00;;;;;;;;;;5071157;28;20464;-67
2021/10/26 03:01:12;;;;;;;10.17;6.17;;;;;;;;;;5072990;28;20532;-67
2021/10/26 03:03:41;;;;;;;8.07;6.03;;;;;;;;;;5085944;28;20580;-67
2021/10/26 03:06:08;;;;;;;6.57;4.73;;;;;;;;;;5078159;28;20568;-67
2021/10/26 03:08:35;;;;;;;10.27;6.07;;;;;;;;;;5072922;28;20452;-66
2021/10/26 03:11:02;;;;;;;12.60;5.70;;;;;;;;;;5079805;28;20478;-67
2021/10/26 03:13:30;;;;;;;5.90;5.30;;;;;;;;;;5076246;28;20882;-66
2021/10/26 03:15:58;;;;;;;7.60;6.63;;;;;;;;;;5081522;28;20991;-67
2021/10/26 03:18:25;;;;;;;7.30;5.93;;;;;;;;;;5082166;28;20456;-67
2021/10/26 03:20:55;;;;;;;13.40;6.87;;;;;;;;;;5073215;28;20451;-67
2021/10/26 03:23:22;;;;;;;6.50;5.47;;;;;;;;;;5081709;28;20816;-67
2021/10/26 03:25:50;;;;;;;7.00;5.77;;;;;;;;;;5090147;28;20782;-67
2021/10/26 03:28:17;;;;;;;10.47;5.50;;;;;;;;;;5075761;28;20536;-67
2021/10/26 03:30:44;;;;;;;8.23;5.97;;;;;;;;;;5070634;28;20816;-67
2021/10/26 03:33:11;;;;;;;8.83;7.13;;;;;;;;;;5080308;28;20452;-67
2021/10/26 03:35:38;;;;;;;7.43;5.50;;;;;;;;;;5077416;28;20455;-67
2021/10/26 03:38:07;;;;;;;7.67;6.13;;;;;;;;;;5082187;28;20523;-67
2021/10/26 03:40:34;;;;;;;10.07;6.80;;;;;;;;;;5074590;28;20445;-67
2021/10/26 03:43:01;;;;;;;11.10;7.07;;;;;;;;;;5084064;28;20514;-72
2021/10/26 03:45:29;;;;;;;10.63;6.40;;;;;;;;;;5075952;28;20467;-69
2021/10/26 03:47:56;;;;;;;13.33;8.50;;;;;;;;;;5091248;28;20448;-67
2021/10/26 03:50:23;;;;;;;8.90;6.83;;;;;;;;;;5077081;28;20481;-68
2021/10/26 03:52:50;;;;;;;9.40;7.10;;;;;;;;;;5091264;28;20453;-67
2021/10/26 03:55:20;;;;;;;9.10;6.40;;;;;;;;;;5091089;28;20451;-67
2021/10/26 03:57:48;;;;;;;7.67;6.80;;;;;;;;;;5086648;28;20438;-68
2021/10/26 04:00:15;;;;;;;11.20;9.17;;;;;;;;;;5087327;28;20453;-67
2021/10/26 04:02:42;;;;;;;13.13;7.90;;;;;;;;;;5070424;28;20445;-67
2021/10/26 04:05:18;;;;;;;11.30;7.27;;;;;;;;;;5070620;28;20493;-67
2021/10/26 04:07:51;;;;;;;8.93;7.47;;;;;;;;;;5070692;28;20499;-67
2021/10/26 04:10:30;;;;;;;11.57;7.80;;;;;;;;;;5070955;28;20457;-67
2021/10/26 04:12:58;;;;;;;16.10;7.37;;;;;;;;;;5071093;28;20441;-67
2021/10/26 04:15:25;;;;;;;13.40;9.00;;;;;;;;;;5071803;28;20449;-66
2021/10/26 04:17:52;;;;;;;13.83;7.20;;;;;;;;;;5086224;28;20459;-66
2021/10/26 04:20:19;;;;;;;9.30;7.60;;;;;;;;;;5090981;28;20456;-66
2021/10/26 04:22:46;;;;;;;12.20;7.93;;;;;;;;;;5093950;28;20445;-66
2021/10/26 04:25:13;;;;;;;12.07;7.53;;;;;;;;;;5094928;28;20457;-67
2021/10/26 04:27:42;;;;;;;11.10;7.30;;;;;;;;;;5094327;28;20522;-66
2021/10/26 04:30:09;;;;;;;10.17;7.97;;;;;;;;;;5095373;28;20475;-66
2021/10/26 04:32:37;;;;;;;10.10;6.97;;;;;;;;;;5094473;28;20498;-66
2021/10/26 04:35:04;;;;;;;16.53;9.17;;;;;;;;;;5094533;28;20464;-66
2021/10/26 04:37:31;;;;;;;11.53;8.03;;;;;;;;;;5094108;28;20505;-66
2021/10/26 04:39:58;;;;;;;10.37;7.40;;;;;;;;;;5094950;28;20523;-66
2021/10/26 04:42:25;;;;;;;10.60;7.67;;;;;;;;;;5094338;28;20448;-66
2021/10/26 04:44:54;;;;;;;12.33;8.60;;;;;;;;;;5094709;28;20531;-66
2021/10/26 04:47:23;;;;;;;12.83;8.20;;;;;;;;;;5094941;28;20448;-66
2021/10/26 04:49:50;;;;;;;9.97;8.13;;;;;;;;;;5082937;28;20528;-66
2021/10/26 04:52:17;;;;;;;10.37;7.87;;;;;;;;;;5092537;28;21075;-66
2021/10/26 04:54:44;;;;;;;8.20;7.20;;;;;;;;;;5094460;28;20447;-66
2021/10/26 04:57:11;;;;;;;13.60;8.13;;;;;;;;;;5094423;28;20825;-66
2021/10/26 04:59:39;;;;;;;10.33;7.40;;;;;;;;;;5093987;28;20535;-66
2021/10/26 05:02:07;;;;;;;12.83;8.40;;;;;;;;;;5088837;28;20445;-66
2021/10/26 05:04:34;;;;;;;8.63;6.93;;;;;;;;;;5073242;28;20481;-66
2021/10/26 05:07:02;;;;;;;9.67;8.00;;;;;;;;;;5073795;28;20528;-67
2021/10/26 05:09:29;;;;;;;12.97;9.70;;;;;;;;;;5073576;28;20445;-66
2021/10/26 05:11:56;;;;;;;14.47;8.03;;;;;;;;;;5073758;28;20988;-66
2021/10/26 05:14:24;;;;;;;14.30;8.70;;;;;;;;;;5073955;28;21025;-66
2021/10/26 05:16:51;;;;;;;9.70;7.73;;;;;;;;;;5073402;28;20457;-66
2021/10/26 05:19:21;;;;;;;12.43;7.20;;;;;;;;;;5087810;28;20455;-66
2021/10/26 05:21:48;;;;;;;10.83;8.23;;;;;;;;;;5073130;28;20949;-66
2021/10/26 05:24:16;;;;;;;11.50;8.30;;;;;;;;;;5073949;28;20449;-66
2021/10/26 05:26:43;;;;;;;13.40;9.50;;;;;;;;;;5073021;28;20499;-66
2021/10/26 05:29:11;;;;;;;9.27;7.10;;;;;;;;;;5073588;28;20536;-66
2021/10/26 05:31:38;;;;;;;9.93;7.83;;;;;;;;;;5073049;28;20992;-66
2021/10/26 05:34:06;;;;;;;11.93;8.23;;;;;;;;;;5072780;28;20449;-66
2021/10/26 05:36:34;;;;;;;11.27;7.43;;;;;;;;;;5072798;28;20480;-66
2021/10/26 05:39:02;;;;;;;11.00;7.93;;;;;;;;;;5073371;28;20441;-66
2021/10/26 05:41:30;;;;;;;15.63;8.13;;;;;;;;;;5072848;28;20453;-66
2021/10/26 05:43:57;;;;;;;12.07;8.50;;;;;;;;;;5073344;28;20529;-66
2021/10/26 05:46:24;;;;;;;8.80;7.20;;;;;;;;;;5073265;28;20452;-66
2021/10/26 05:48:51;;;;;;;11.27;7.50;;;;;;;;;;5073596;28;20433;-66
2021/10/26 05:51:18;;;;;;;7.87;7.10;;;;;;;;;;5083464;28;20993;-65
2021/10/26 05:53:47;;;;;;;10.50;7.70;;;;;;;;;;5092969;28;20449;-66
2021/10/26 05:56:14;;;;;;;11.07;8.37;;;;;;;;;;5093154;28;20448;-66
2021/10/26 05:58:41;;;;;;;10.43;8.10;;;;;;;;;;5092890;28;20540;-65
2021/10/26 06:01:08;;;;;;;9.43;8.20;;;;;;;;;;5093708;28;20444;-66
2021/10/26 06:03:36;;;;;;;10.40;8.20;;;;;;;;;;5092879;28;20452;-66
2021/10/26 06:06:03;;;;;;;8.80;7.23;;;;;;;;;;5093009;28;20569;-66
2021/10/26 06:08:31;;;;;;;9.43;7.43;;;9.20;99.90;;;;;;5092419;28;20480;-66
2021/10/26 06:11:03;;;;;;;10.87;7.33;;;9.30;99.90;;;;;;5093308;28;20471;-66
2021/10/26 06:13:32;;;;;;;9.90;7.40;;;9.40;99.90;;;;;;5092433;28;20460;-66
2021/10/26 06:15:58;;;;;;;9.10;7.50;;;9.40;99.90;;;;;;5092846;28;20453;-66
2021/10/26 06:18:26;;;;;;;11.60;8.50;;;9.40;99.90;;;;;;5092798;28;20491;-66
2021/10/26 06:20:52;;;;;;;8.97;7.70;;;9.40;99.90;;;;;;5092795;28;20445;-68
2021/10/26 06:23:19;;;;;;;12.27;8.20;;;9.50;99.90;;;;;;5092781;28;20535;-66
2021/10/26 06:25:46;;;;;;;10.03;8.30;;;9.40;99.90;;;;;;5091921;28;20488;-66
2021/10/26 06:28:14;;;;;;;14.40;9.07;;;9.40;99.90;;;;;;5092755;28;21016;-66
2021/10/26 06:30:41;;;;;;;9.60;8.10;;;9.30;99.90;;;;;;5091981;28;20964;-66
2021/10/26 06:33:08;;;;;;;11.27;8.17;;;9.40;99.90;;;;;;5092932;28;20472;-66
2021/10/26 06:35:35;;;;;;;16.33;8.53;;;9.50;99.90;;;;;;5091460;28;20581;-66
2021/10/26 06:38:02;;;;;;;13.70;8.37;;;9.60;99.90;;;;;;5072430;28;20482;-66
2021/10/26 06:40:29;;;;;;;12.50;7.83;;;;;;;;;;5071843;28;20528;-66
2021/10/26 06:42:57;;;;;;;10.00;8.20;;;;;;;;;;5072412;28;20520;-67
2021/10/26 06:45:26;;;;;;;11.73;8.43;;;;;;;;;;5070909;28;20472;-68
2021/10/26 06:47:53;;;;;;;13.10;8.47;;;;;;;;;;5072091;28;20449;-68
2021/10/26 06:50:21;;;;;;;15.00;8.50;;;;;;;;;;5085678;28;20444;-67
2021/10/26 06:52:49;;;;;;;13.97;9.23;;;;;;;;;;5071637;28;20568;-68
2021/10/26 06:55:19;;;;;;;9.90;8.60;;;;;;;;;;5071985;28;20457;-66
2021/10/26 06:57:48;;;;;;;10.67;7.70;;;;;;;;;;5071710;28;20773;-66
2021/10/26 07:00:16;;;;;;;10.90;7.10;;;;;;;;;;5072133;28;20536;-67
2021/10/26 07:02:47;;;;;;;11.80;8.10;;;;;;;;;;5071502;28;20528;-67
2021/10/26 07:05:16;;;;;;;10.03;7.30;;;;;;;;;;5071305;28;20514;-67
2021/10/26 07:07:43;;;;;;;10.43;8.83;;;;;;;;;;5070982;28;20525;-67
2021/10/26 07:10:10;;;;;;;12.77;8.67;;;;;;;;;;5071593;28;20544;-66
2021/10/26 07:12:37;;;;;;;13.87;9.40;;;;;;;;;;5071392;28;20922;-66
2021/10/26 07:15:07;;;;;;;13.37;8.67;;;;;;;;;;5071259;28;20933;-67
2021/10/26 07:17:34;;;;;;;14.03;8.63;;;;;;;;;;5071253;28;20456;-66
2021/10/26 07:20:03;;;;;;;9.30;8.30;;;;;;;;;;5071473;28;20476;-66
2021/10/26 07:22:30;;;;;;;10.40;8.20;;;;;;;;;;5070807;28;20453;-66
2021/10/26 07:24:59;;;;;;;13.07;9.73;;;;;;;;;;5071192;28;20530;-66
2021/10/26 07:27:27;;;;;;;10.70;7.50;;;;;;;;;;5071385;28;20529;-66
2021/10/26 07:29:54;;;;;;;10.10;8.07;;;;;;;;;;5078398;28;20523;-67
2021/10/26 07:32:21;;;;;;;9.53;7.50;;;;;;;;;;5091322;28;20482;-66
2021/10/26 07:34:49;;;;;;;11.90;8.70;;;;;;;;;;5090850;28;20507;-66
2021/10/26 07:37:21;;;;;;;8.70;7.63;;;;;;;;;;5091686;28;20494;-66
2021/10/26 07:39:51;;;;;;;10.50;7.70;;;;;;;;;;5091258;28;20795;-66
2021/10/26 07:42:18;;;;;;;10.53;7.97;;;;;;;;;;5091672;28;20522;-66
2021/10/26 07:44:46;;;;;;;11.00;9.50;;;;;;;;;;5090413;28;20451;-66
2021/10/26 07:47:16;;;;;;;10.70;8.53;;;;;;;;;;5091541;28;20449;-66
2021/10/26 07:49:44;;;;;;;12.40;8.30;;;;;;;;;;5090362;28;20535;-66
2021/10/26 07:52:11;;;;;;;11.80;8.00;;;;;;;;;;5091341;28;20928;-66
2021/10/26 07:54:41;;;;;;;11.10;8.67;;;;;;;;;;5090447;28;20779;-66
2021/10/26 07:57:08;;;;;;;12.47;8.47;;;;;;;;;;5091150;28;20448;-66
2021/10/26 07:59:35;;;;;;;12.27;8.33;;;;;;;;;;5091316;28;20848;-66
2021/10/26 08:02:02;;;;;;;11.27;9.10;;;;;;;;;;5091311;28;20531;-66
2021/10/26 08:04:30;;;;;;;10.50;8.23;;;;;;;;;;5090534;28;20524;-66
2021/10/26 08:07:00;;;;;;;10.83;9.10;;;;;;;;;;5091124;28;20448;-67
2021/10/26 08:09:27;;;;;;;12.30;8.90;;;;;;;;;;5090774;28;20882;-66
2021/10/26 08:11:56;;;;;;;15.00;9.27;;;;;;;;;;5090848;28;21006;-67
2021/10/26 08:14:23;;;;;;;13.00;8.67;;;;;;;;;;5091282;28;20449;-66
2021/10/26 08:16:50;;;;;;;11.50;7.90;;;;;;;;;;5089912;28;20451;-66
2021/10/26 08:19:18;;;;;;;14.73;8.70;;;;;;;;;;5091237;28;20467;-66
2021/10/26 08:21:46;;;;;;;13.77;8.20;;;;;;;;;;5090334;28;20940;-66
2021/10/26 08:24:13;;;;;;;12.13;8.60;;;;;;;;;;5091126;28;20444;-66
2021/10/26 08:26:44;;;;;;;11.40;9.07;;;;;;;;;;5089793;28;20456;-66
2021/10/26 08:29:17;;;;;;;12.10;8.40;;;;;;;;;;5091096;28;20890;-66
2021/10/26 08:32:01;;;;;;;12.70;8.00;;;;;;;;;;5090232;28;20445;-66
2021/10/26 08:34:42;;;;;;;10.50;7.73;;;;;;;;;;5090363;28;20482;-66
2021/10/26 08:37:10;;;;;;;9.83;8.10;;;;;;;;;;5091249;28;20495;-67
2021/10/26 08:39:38;;;;;;;11.43;9.47;;;;;;;;;;5090195;28;20464;-66
2021/10/26 08:42:06;;;;;;;9.47;8.37;;;;;;;;;;5090770;28;20479;-66
2021/10/26 08:44:35;;;;;;;11.80;7.83;;;;;;;;;;5089898;28;20451;-66
2021/10/26 08:47:03;;;;;;;12.63;7.97;;;;;;;;;;5090867;28;20441;-66
2021/10/26 08:49:30;;;;;;;13.33;7.93;;;;;;;;;;5090288;28;20728;-66
2021/10/26 08:51:57;;;;;;;10.03;7.27;;;;;;;;;;5090737;28;20466;-66
2021/10/26 08:54:24;;;;;;;10.27;7.80;;;;;;;;;;5090601;28;20444;-66
2021/10/26 08:56:52;;;;;;;12.83;7.33;;;;;;;;;;5088191;28;20933;-66
2021/10/26 08:59:20;;;;;;;13.00;7.60;;;;;;;;;;5070390;28;20452;-67
2021/10/26 09:01:50;;;;;;;11.70;7.43;;;;;;;;;;5072226;28;20461;-67
2021/10/26 09:04:17;;;;;;;17.73;8.03;;;;;;;;;;5081056;28;20469;-66
2021/10/26 09:06:45;;;;;;;9.93;6.27;;;;;;;;;;5069695;28;20871;-66
2021/10/26 09:09:14;;;;;;;12.03;6.80;;;;;;;;;;5072723;28;20533;-66
2021/10/26 09:17:19;;;;;;;8.57;6.30;;;;;;;;;;5073886;28;20452;-66
2021/10/26 09:19:46;;;;;;;14.10;5.80;;;;;;;;;;5073390;28;20480;-67
2021/10/26 09:22:15;;;;;;;7.30;5.53;;;;;;;;;;5074088;28;20464;-67
2021/10/26 09:24:54;;;;;;;6.20;5.23;;;;;;;;;;5072702;28;20949;-66
2021/10/26 09:27:22;;;;;;;6.40;4.37;;;;;;;;;;5074200;28;20873;-66
2021/10/26 09:29:51;;;;;;;7.10;5.00;;;;;;;;;;5079659;28;20436;-67
2021/10/26 09:32:21;;;;;;;5.90;4.00;;;;;;;;;;5093726;28;20563;-66
2021/10/26 09:34:49;;;;;;;7.37;4.10;;;;;;;;;;5092683;28;20456;-67
2021/10/26 09:37:16;;;;;;;3.70;3.20;;;;;;;;;;5094015;28;20437;-66
2021/10/26 09:39:50;;;;;;;5.53;3.20;;;;;;;;;;5093133;28;20492;-67
2021/10/26 09:42:17;;;;;;;4.83;3.40;;;;;;;;;;5094196;28;20511;-67
2021/10/26 09:44:47;;;;;;;3.97;3.30;;;;;;;;;;5092899;28;20478;-67
2021/10/26 09:47:19;;;;;;;6.83;3.00;;;;;;;;;;5093700;28;20494;-67
2021/10/26 09:49:51;;;;;;;4.23;3.00;;;;;;;;;;5093652;28;20444;-66
2021/10/26 09:52:19;;;;;;;4.50;3.57;;;;;;;;;;5093692;28;20508;-67
2021/10/26 09:54:48;;;;;;;4.00;3.07;;;;;;;;;;5092466;28;20846;-67
2021/10/26 09:57:16;;;;;;;5.07;3.00;;;;;;;;;;5093331;28;20510;-67
2021/10/26 09:59:47;;;;;;;6.90;3.50;;;;;;;;;;5092725;28;20449;-66
2021/10/26 10:02:16;;;;;;;3.50;2.60;;;;;;;;;;5093465;28;20448;-67
2021/10/26 10:04:49;;;;;;;5.93;3.00;;;;;;;;;;5091928;28;20520;-67
2021/10/26 10:07:27;;;;;;;4.67;2.90;;;;;;;;;;5093034;28;20444;-67
2021/10/26 10:09:55;;;;;;;4.63;2.70;;;;;;;;;;5093185;28;20452;-66
2021/10/26 10:12:23;;;;;;;3.87;3.07;;;;;;;;;;5092936;28;21016;-68
2021/10/26 10:14:53;;;;;;;6.90;3.17;;;;;;;;;;5091910;28;20460;-66
2021/10/26 10:17:22;;;;;;;4.40;2.30;;;;;;;;;;5093025;28;20452;-67
2021/10/26 10:19:50;;;;;;;5.10;2.57;;;;;;;;;;5091896;28;20448;-68
2021/10/26 10:22:21;;;;;;;4.30;1.93;;;;;;;;;;5092805;28;20457;-68
2021/10/26 10:24:52;;;;;;;4.70;2.20;;;;;;;;;;5073306;28;20450;-67
2021/10/26 10:27:20;;;;;;;4.90;2.50;;;;;;;;;;5072831;28;20503;-67
2021/10/26 10:29:48;;;;;;;3.60;2.43;;;;;;;;;;5072041;28;20988;-66
2021/10/26 10:32:17;;;;;;;2.50;2.23;;;;;;;;;;5072567;28;20503;-67
2021/10/26 10:34:45;;;;;;;3.30;2.77;;;;;;;;;;5071233;28;20454;-67
2021/10/26 10:37:13;;;;;;;3.30;2.70;;;;;;;;;;5085786;28;20917;-67
2021/10/26 10:39:43;;;;;;;3.60;2.40;;;;;;;;;;5085081;28;20533;-67
2021/10/26 10:42:12;;;;;;;4.63;2.00;;;;;;;;;;5072391;28;20556;-67
2021/10/26 10:44:40;;;;;;;2.07;1.63;;;;;;;;;;5071660;28;20550;-66
2021/10/26 10:47:11;;;;;;;2.70;2.17;;;;;;;;;;5072091;28;20926;-67
2021/10/26 10:49:45;;;;;;;4.50;1.73;;;;;;;;;;5071875;28;20440;-66
2021/10/26 10:52:15;;;;;;;5.40;2.40;;;;;;;;;;5089583;28;20445;-67
2021/10/26 10:54:48;;;;;;;5.20;2.47;;;;;;;;;;5091072;28;20455;-67
2021/10/26 10:57:19;;;;;;;4.03;2.50;;;;;;;;;;5092355;28;20437;-66
2021/10/26 10:59:47;;;;;;;3.83;1.90;;;;;;;;;;5091811;28;20444;-67
2021/10/26 11:02:22;;;;;;;3.27;2.50;;;;;;;;;;5092017;28;20805;-68
2021/10/26 11:04:50;;;;;;;4.53;2.30;;;;;;;;;;5091121;28;20567;-67
2021/10/26 11:07:17;;;;;;;2.87;2.50;;;;;;;;;;5092245;28;20433;-67
2021/10/26 11:09:46;;;;;;;3.27;2.03;;;;;;;;;;5091442;28;20451;-66
2021/10/26 11:12:28;;;;;;;5.53;2.63;;;;;;;;;;5091898;28;20452;-66
2021/10/26 11:14:56;;;;;;;2.20;2.00;;;;;;;;;;5088839;28;20539;-67
2021/10/26 11:17:50;;;;;;;3.30;2.03;;;;;;;;;;5092100;28;20444;-67
2021/10/26 11:20:37;;;;;;;4.33;1.97;;;;;;;;;;5044505;28;20452;-67
2021/10/26 11:23:05;;;;;;;4.30;2.40;;;;;;;;;;5092067;28;20737;-67
2021/10/26 11:25:36;;;;;;;3.43;2.40;;;;;;;;;;5090914;28;20449;-66
2021/10/26 11:28:25;;;;;;;7.20;2.17;;;;;;;;;;5091440;28;20936;-67
2021/10/26 11:30:52;;;;;;;3.97;2.37;;;;;;;;;;5090387;28;20524;-67
2021/10/26 11:33:32;;;;;;;3.47;1.90;;;;;;;;;;5091603;28;20483;-67
2021/10/26 11:36:03;;;;;;;4.37;1.87;;;;;;;;;;5090709;28;20464;-67
2021/10/26 11:38:33;;;;;;;3.37;2.30;;;;;;;;;;5090689;28;20444;-67
2021/10/26 11:41:03;;;;;;;3.30;2.23;;;;;;;;;;5091488;28;20464;-66
2021/10/26 11:43:31;;;;;;;5.13;2.33;;;;;;;;;;5090971;28;20885;-66
2021/10/26 11:45:58;;;;;;;3.67;2.27;;;;;;;;;;5091016;28;20484;-67
2021/10/26 11:48:38;;;;;;;2.70;1.87;;;;;;;;;;5091349;28;20470;-67
2021/10/26 11:51:18;;;;;;;2.30;1.63;;;;;;;;;;5071393;28;20529;-67
2021/10/26 11:53:46;;;;;;;4.17;1.63;;;;;;;;;;5069963;28;20985;-66
2021/10/26 11:56:22;;;;;;;2.50;1.80;;;;;;;;;;5070219;28;20476;-67
2021/10/26 11:58:57;;;;;;;4.23;2.40;;;;;;;;;;5069785;28;21019;-67
2021/10/26 12:01:34;;;;;;;2.67;2.20;;;;;;;;;;5070881;28;20951;-67
2021/10/26 12:04:01;;;;;;;4.13;2.70;;;;;;;;;;5078731;28;20455;-66
2021/10/26 12:06:32;;;;;;;2.97;2.13;;;;;;;;;;5090266;28;20461;-66
2021/10/26 12:09:00;;;;;;;3.70;2.77;;;;;;;;;;5091503;28;20452;-67
2021/10/26 12:11:33;;;;;;;4.50;2.33;;;;;;;;;;5091106;28;20444;-67
2021/10/26 12:14:14;;;;;;;4.83;2.53;;;;;;;;;;5091270;28;20519;-67
2021/10/26 12:16:43;;;;;;;2.37;2.03;;;;;;;;;;5090514;28;20448;-66
2021/10/26 12:19:10;;;;;;;6.13;2.80;;;;;;;;;;5091127;28;20452;-67
2021/10/26 12:21:52;;;;;;;3.30;2.27;;;;;;;;;;5090589;28;20543;-67
2021/10/26 12:24:23;;;;;;;3.80;2.03;;;;;;;;;;5090311;28;21012;-67
2021/10/26 12:27:00;;;;;;;3.87;2.50;;;;;;;;;;5090204;28;20493;-66
2021/10/26 12:29:29;;;;;;;3.73;2.20;;;;;;;;;;5091076;28;20455;-67
2021/10/26 12:31:56;;;;;;;2.57;2.10;;;;;;;;;;5090842;28;20958;-67
2021/10/26 12:34:24;;;;;;;2.70;2.00;;;;;;;;;;5090388;28;20859;-67
2021/10/26 12:36:52;;;;;;;7.37;2.47;;;;;;;;;;5080308;28;20445;-66
2021/10/26 12:39:24;;;;;;;2.43;1.83;;;;;;;;;;5070701;28;20449;-66
2021/10/26 12:41:51;;;;;;;1.67;1.57;;;;;;;;;;5070239;28;20433;-67
2021/10/26 12:44:23;;;;;;;7.83;2.30;;;;;;;;;;5074363;28;20498;-67
2021/10/26 12:47:03;;;;;;;2.33;2.03;;;;;;;;;;5073920;28;20482;-67
2021/10/26 12:49:36;;;;;;;3.63;2.50;;;;;;;;;;5083485;28;20506;-66
2021/10/26 12:52:12;;;;;;;3.47;2.33;;;;;;;;;;5077916;28;20441;-66
2021/10/26 12:54:39;;;;;;;5.93;2.30;;;;;;;;;;5073363;28;20477;-66
2021/10/26 12:57:07;;;;;;;3.03;2.40;;;;;;;;;;5074620;28;20863;-66
2021/10/26 12:59:38;;;;;;;3.40;2.10;;;;;;;;;;5073490;28;20940;-66
2021/10/26 13:02:06;;;;;;;4.13;2.63;;;;;;;;;;5074150;28;20868;-66
2021/10/26 13:04:35;;;;;;;3.67;2.43;;;;;;;;;;5072973;28;20527;-66
2021/10/26 13:07:05;;;;;;;4.27;2.27;;;;;;;;;;5074239;28;20540;-66
2021/10/26 13:09:34;;;;;;;2.80;2.00;;;;;;;;;;5073416;28;20453;-66
2021/10/26 13:12:12;;;;;;;7.30;3.10;;;;;;;;;;5087137;28;20441;-66
2021/10/26 13:14:43;;;;;;;3.60;2.30;;;;;;;;;;5073153;28;20926;-66
2021/10/26 13:17:23;;;;;;;2.00;1.80;;;;;;;;;;5073821;28;20960;-66
2021/10/26 13:19:51;;;;;;;2.40;2.10;;;;;;;;;;5073329;28;20835;-66
2021/10/26 13:22:18;;;;;;;1.90;1.63;;;;;;;;;;5073789;28;20445;-66
2021/10/26 13:24:46;;;;;;;2.13;1.60;;;;;;;;;;5086619;28;20484;-66
2021/10/26 13:27:15;;;;;;;3.00;2.37;;;;;;;;;;5073962;28;20449;-67
2021/10/26 13:29:45;;;;;;;3.37;1.90;;;;;;;;;;5072947;28;20827;-66
2021/10/26 13:32:18;;;;;;;3.33;2.17;;;;;;;;;;5073888;28;20441;-66
2021/10/26 13:34:45;;;;;;;4.80;2.17;;;;;;;;;;5079793;28;20499;-66
2021/10/26 13:37:12;;;;;;;2.70;2.07;;;;;;;;;;5093810;28;20457;-66
2021/10/26 13:39:39;;;;;;;5.57;2.20;;;;;;;;;;5093133;28;20449;-66
2021/10/26 13:42:07;;;;;;;3.77;1.67;;;;;;;;;;5093610;28;20523;-66
2021/10/26 13:44:34;;;;;;;3.27;1.90;;;;;;;;;;5092292;28;20448;-67
2021/10/26 13:47:03;;;;;;;4.03;2.00;;;;;;;;;;5093653;28;20498;-66
2021/10/26 13:49:30;;;;;;;4.57;2.23;;;;;;;;;;5084360;28;20449;-66
2021/10/26 13:51:57;;;;;;;2.63;1.60;;;;;;;;;;5088868;28;20448;-66
2021/10/26 13:54:25;;;;;;;4.23;2.00;;;;;;;;;;5092658;28;20567;-67
2021/10/26 13:56:52;;;;;;;2.47;1.60;;;;;;;;;;5090706;28;20523;-67
2021/10/26 13:59:19;;;;;;;2.13;1.60;;;;;;;;;;5073361;28;20441;-66
2021/10/26 14:01:47;;;;;;;1.63;1.33;;;;;;;;;;5072731;28;20941;-66
2021/10/26 14:04:16;;;;;;;2.80;1.77;;;;;;;;;;5072397;28;20484;-66
2021/10/26 14:06:45;;;;;;;2.10;1.57;;;;;;;;;;5072554;28;20834;-66
2021/10/26 14:09:12;;;;;;;3.57;1.93;;;;;;;;;;5073015;28;20445;-66
2021/10/26 14:11:39;;;;;;;4.10;1.77;;;;;;;;;;5086216;28;20532;-66
2021/10/26 14:14:07;;;;;;;3.30;1.50;;;;;;;;;;5072311;28;20495;-68
2021/10/26 14:16:35;;;;;;;2.00;1.40;;;;;;;;;;5072379;28;20449;-66
2021/10/26 14:19:02;;;;;;;1.97;1.33;;;;;;;;;;5073032;28;20877;-66
2021/10/26 14:21:33;;;;;;;2.97;1.70;;;;;;;;;;5072218;28;20493;-66
2021/10/26 14:24:00;;;;;;;1.50;1.40;;;;;;;;;;5072709;28;20565;-66
2021/10/26 14:26:27;;;;;;;3.00;1.83;;;;;;;;;;5072761;28;20536;-66
2021/10/26 14:28:55;;;;;;;2.83;1.93;;;;;;;;;;5072452;28;20488;-66
2021/10/26 14:31:23;;;;;;;3.50;1.37;;;;;;;;;;5079434;28;20783;-66
2021/10/26 14:33:52;;;;;;;2.63;2.10;;;;;;;;;;5091942;28;20499;-66